Detall de PIREP

Printer-friendly versionPDF version

[2013/03/04 16:13:00]
Flight IATA:CT3308
Pilot Number:012
Company ICAO:CAT
Aircraft Type:A320/E
PAX:120
Departing Airport: LEZG
Destination Airport: HLLT
Alternate Airport:LMML
Online: VATSIM
Route:PONEN/M078F340 UN870 BCN/M078F350 UN859 GENIO UM134 ANB UA411 TANLI
Flight Level:F350
No Slew and time accel
No pause
Crash detect
Detect pilot in Cockpit between each 30 and 45 minutes
16:13 Zero fuel Weight: 119396 Lbs, Fuel Weight: 27528 Lbs
16:13 VATSIM:LEZG 041600Z 11013KT 070V140 9999 BKN022 11/07 Q1005
16:13 VATSIM:HLLT 041550Z 08013KT CAVOK 18/10 Q1016
16:14 VOICE CATALONIAN
16:15 Parking Brakes off
16:20 Take-off
16:20 Take off Weight: 146061 Lbs
16:20 Wind: 113º @ 013 Knots Heading: 118º
16:20 POS N41º 39´ 32´´ W001º 00´ 57´´
16:20 Gear Up: 181 Knots
16:20 Flaps:3 at 181 Knots
16:21 Flaps:2 at 188 Knots
16:21 Flaps:1 at 199 Knots
16:21 Flaps:0 at 210 Knots
16:35 Wind:247º@025 Knots Heading: 092º Ground Speed: 487 Knots Altitude 29547 ft
16:38 TOC
16:38 Fuel Weight: 22552 Lb
16:50 Wind:241º@043 Knots Heading: 170º Ground Speed: 429 Knots Altitude 36840 ft
17:05 Wind:244º@040 Knots Heading: 170º Ground Speed: 436 Knots Altitude 36758 ft
17:20 Wind:239º@049 Knots Heading: 116º Ground Speed: 474 Knots Altitude 36879 ft
17:35 Wind:264º@056 Knots Heading: 115º Ground Speed: 494 Knots Altitude 36929 ft
17:50 Wind:276º@070 Knots Heading: 087º Ground Speed: 514 Knots Altitude 37027 ft
18:05 Wind:273º@081 Knots Heading: 193º Ground Speed: 441 Knots Altitude 37093 ft
18:16 TOD
18:16 Fuel Weight: 14061 Lb
18:20 Wind:273º@049 Knots Heading: 125º Ground Speed: 469 Knots Altitude 24534 ft
18:35 Wind:195º@009 Knots Heading: 122º Ground Speed: 261 Knots Altitude 4179 ft
18:37 Flaps:1 at 204 Knots
18:38 Flaps:3 at 187 Knots
18:38Gear Down: 187 Knots
18:38 Flaps:4 at 144 Knots
18:39 Flaps:5 at 142 Knots
18:40 TouchDown:Rate -194 ft/min Speed: 135 Knots
18:40 VATSIM:HLLT 041820Z 08009KT CAVOK 15/10 Q1017
18:40 Land
18:40 Wind:079º@009 Knots
18:40 Heading: 089º
18:40 Flight Duration: 02:20
18:40 Landing Weight: 131869 Lbs
18:40 POS N32º 39´ 52´´ E013º 08´ 40´´
18:43 Parking brakes on
18:43 Block to Block Duration: 02:28
18:43 Final Fuel: 12242 Lbls
18:43 Spent Fuel: 15286 Lbls
18:43 Flight Length: 1009 NM
18:43 TOD Land Length: 128 NM

Exportar CSV

Powered by Drupal - Modified by Danger4k